Impacts METAR Board
IDs:

KMEM - Memphis Intl, TN, US

Updated at: 0300 UTC 06 Dec 2019
Potential Impact None Slight Moderate High
Time 05/15Z 05/16Z 05/17Z 05/18Z 05/19Z 05/20Z 05/21Z 05/22Z 05/23Z 06/00Z 06/01Z 06/02Z 06/03Z
Temp52 54 57 61 61 62 62 61 60 58 58 57 57
Dewpt39 38 37 36 35 36 34 35 36 37 38 38 39
Altim30.12 30.12 30.12 30.09 30.07 30.05 30.05 30.05 30.04 30.05 30.05 30.03 30.04
VIS10 10 10 10 10 10 10 10 10 10 10 10 10
CIG150 120 110 180 130 120 120 120 130 170 150 110 110
CoverBKNBKNBKNBKNOVCBKNBKNBKNBKNBKNBKNBKNBKN
FltCatVFRVFRVFRVFRVFRVFRVFRVFRVFRVFRVFRVFRVFR
WX--------------------------
WDir0160180180170170170180140150150150170
WSpd3 5 8 13 8 8 9 8 5 4 8 6 8
WGst-- -- -- -- -- -- -- -- -- -- -- -- --
Raw hourly METARs
KMEM 051454Z VRB03KT 10SM FEW100 BKN150 11/04 A3012 RMK AO2 SLP199 T01110039 51009
KMEM 051554Z 16005KT 10SM FEW095 BKN120 12/03 A3012 RMK AO2 SLP200 T01220033
KMEM 051654Z 18008KT 10SM BKN110 BKN200 14/03 A3012 RMK AO2 SLP198 T01390028
KMEM 051754Z 18013KT 10SM SCT130 BKN180 16/02 A3009 RMK AO2 SLP189 T01610022 10161 20061 58009
KMEM 051854Z 17008KT 10SM BKN130 OVC180 16/02 A3007 RMK AO2 SLP180 T01610017
KMEM 051954Z 17008KT 10SM SCT090 BKN120 BKN180 17/02 A3005 RMK AO2 SLP176 T01670022
KMEM 052054Z 17009KT 10SM SCT090 BKN120 BKN180 17/01 A3005 RMK AO2 SLP173 T01670011 56015
KMEM 052154Z 18008KT 10SM FEW050 SCT090 BKN120 BKN180 16/02 A3005 RMK AO2 SLP176 T01610017
KMEM 052254Z 14005KT 10SM BKN130 BKN180 16/02 A3004 RMK AO2 SLP173 T01560022
KMEM 052354Z 15004KT 10SM BKN170 14/03 A3005 RMK AO2 SLP177 T01440028 10172 20144 53003
KMEM 060054Z 15008KT 10SM SCT110 BKN150 14/03 A3005 RMK AO2 SLP176 T01440033 $
KMEM 060154Z 15006KT 10SM BKN110 14/03 A3003 RMK AO2 SLP169 T01390033 $
KMEM 060254Z 17008KT 10SM BKN110 14/04 A3004 RMK AO2 SLP171 T01390039 55005 $



Page loaded:  03:53 UTC  |   07:53 PM Pacific  |   08:53 PM Mountain  |   09:53 PM Central  |   10:53 PM Eastern

 

ADVISORIES

FORECASTS

FORECASTS

OBSERVATIONS

USER TOOLS

ABOUT US